Time;durP1;ratioP1;P1;durP2;ratioP2;P2;SDS_P1;SDS_P2;PMS_P1;PMS_P2;Temp;Humidity;BMP_temperature;BMP_pressure;BME280_temperature;BME280_humidity;BME280_pressure;Samples;Min_cycle;Max_cycle;Signal;HPM_P1;HPM_P2
2020/12/22 00:02:19;;;;;;;2.50;0.68;;;12.00;99.90;;;;;;5000815;28;20061;-81
2020/12/22 00:04:45;;;;;;;0.35;0.35;;;12.00;99.90;;;;;;4989528;28;20058;-79
2020/12/22 00:07:11;;;;;;;0.50;0.38;;;12.00;99.90;;;;;;4997276;28;20071;-81
2020/12/22 00:09:38;;;;;;;2.20;0.68;;;12.00;99.90;;;;;;4997505;28;20055;-81
2020/12/22 00:12:11;;;;;;;0.52;0.52;;;12.10;99.90;;;;;;4988160;28;20058;-81
2020/12/22 00:14:38;;;;;;;0.80;0.63;;;12.10;99.90;;;;;;5002197;28;20049;-81
2020/12/22 00:17:05;;;;;;;0.28;0.28;;;12.10;99.90;;;;;;4992569;28;20042;-80
2020/12/22 00:19:31;;;;;;;0.95;0.70;;;12.10;99.90;;;;;;4995041;28;20409;-80
2020/12/22 00:21:58;;;;;;;0.90;0.73;;;12.20;99.90;;;;;;4995562;28;20073;-81
2020/12/22 00:24:24;;;;;;;0.50;0.50;;;12.10;99.90;;;;;;4984019;28;20086;-81
2020/12/22 00:26:50;;;;;;;1.15;0.85;;;12.10;99.90;;;;;;4980340;28;20063;-82
2020/12/22 00:29:26;;;;;;;0.55;0.55;;;12.10;99.90;;;;;;4981513;28;20055;-82
2020/12/22 00:32:00;;;;;;;0.80;0.80;;;12.20;99.90;;;;;;4979848;28;20122;-82
2020/12/22 00:37:19;;;;;;;0.80;0.80;;;12.20;99.90;;;;;;4972277;28;20046;-81
2020/12/22 00:39:46;;;;;;;0.93;0.63;;;12.30;99.90;;;;;;4977451;28;20051;-81
2020/12/22 00:42:19;;;;;;;0.68;0.68;;;12.30;99.90;;;;;;4975137;28;20063;-81
2020/12/22 00:44:49;;;;;;;1.08;0.98;;;12.30;99.90;;;;;;4968616;28;20591;-81
2020/12/22 00:47:32;;;;;;;1.20;0.80;;;12.40;99.90;;;;;;4974856;28;20055;-82
2020/12/22 00:50:09;;;;;;;1.45;1.00;;;12.50;99.90;;;;;;4967615;28;20404;-81
2020/12/22 00:52:35;;;;;;;1.75;0.80;;;12.50;99.90;;;;;;4964862;29;20047;-82
2020/12/22 00:55:12;;;;;;;2.65;1.15;;;12.50;99.90;;;;;;4965676;29;20500;-81
2020/12/22 01:00:47;;;;;;;1.02;0.70;;;12.70;99.90;;;;;;4962280;28;20054;-82
2020/12/22 01:03:14;;;;;;;1.90;0.60;;;12.70;99.90;;;;;;4965572;29;20055;-82
2020/12/22 01:05:40;;;;;;;0.85;0.68;;;12.80;99.90;;;;;;4966211;28;20067;-81
2020/12/22 01:08:07;;;;;;;0.70;0.68;;;12.80;99.90;;;;;;4966445;28;20086;-82
2020/12/22 01:10:33;;;;;;;1.05;0.45;;;12.90;99.90;;;;;;4967938;28;20094;-82
2020/12/22 01:12:59;;;;;;;0.68;0.68;;;13.00;99.90;;;;;;4965756;28;20086;-81
2020/12/22 01:15:26;;;;;;;1.50;0.52;;;13.00;99.90;;;;;;4968169;28;20096;-82
2020/12/22 01:17:52;;;;;;;0.50;0.50;;;13.10;99.90;;;;;;4965513;28;20085;-82
2020/12/22 01:20:19;;;;;;;1.23;0.50;;;13.30;99.90;;;;;;5008848;23;20089;-82
2020/12/22 01:22:46;;;;;;;0.40;0.40;;;13.30;99.90;;;;;;4998567;28;20077;-82
2020/12/22 01:25:12;;;;;;;0.47;0.40;;;13.40;99.90;;;;;;5008267;28;20080;-82
2020/12/22 01:27:39;;;;;;;0.70;0.70;;;13.40;99.90;;;;;;5007869;28;20054;-81
2020/12/22 01:30:05;;;;;;;0.73;0.50;;;13.40;99.90;;;;;;5009339;28;20050;-80
2020/12/22 01:32:32;;;;;;;2.53;0.70;;;13.50;99.90;;;;;;5010199;28;20142;-80
2020/12/22 01:34:58;;;;;;;1.60;0.88;;;13.50;99.90;;;;;;5011119;28;20057;-79
2020/12/22 01:37:25;;;;;;;1.10;1.10;;;13.60;99.90;;;;;;5009701;28;20069;-79
2020/12/22 01:39:52;;;;;;;4.00;1.02;;;13.70;99.90;;;;;;5006283;28;20130;-80
2020/12/22 01:42:18;;;;;;;0.73;0.73;;;13.70;99.90;;;;;;5004013;28;20085;-80
2020/12/22 01:44:44;;;;;;;2.40;1.10;;;13.70;99.90;;;;;;5003160;28;20094;-80
2020/12/22 01:47:11;;;;;;;1.55;1.02;;;13.70;99.90;;;;;;5001407;28;20133;-79
2020/12/22 01:49:37;;;;;;;2.50;0.98;;;13.70;99.90;;;;;;4999803;28;20078;-79
2020/12/22 01:52:04;;;;;;;1.52;1.17;;;13.70;99.90;;;;;;5002737;28;20066;-79
2020/12/22 01:54:31;;;;;;;3.75;1.27;;;13.70;99.90;;;;;;5009340;28;20051;-80
2020/12/22 01:56:58;;;;;;;1.35;1.10;;;13.80;99.90;;;;;;5002654;28;20162;-80
2020/12/22 01:59:25;;;;;;;2.33;1.27;;;13.80;99.90;;;;;;5000723;28;20078;-81
2020/12/22 02:01:54;;;;;;;2.33;1.00;;;13.90;99.90;;;;;;5005818;28;20085;-80
2020/12/22 02:04:21;;;;;;;1.58;1.20;;;13.90;99.90;;;;;;5007466;28;20062;-80
2020/12/22 02:06:48;;;;;;;1.98;1.13;;;13.90;99.90;;;;;;5008597;28;20082;-81
2020/12/22 02:09:14;;;;;;;0.88;0.82;;;13.90;99.90;;;;;;5010661;28;20038;-80
2020/12/22 02:11:41;;;;;;;1.80;1.23;;;13.90;99.90;;;;;;5010216;28;20054;-80
2020/12/22 02:14:09;;;;;;;2.72;1.35;;;13.90;99.90;;;;;;5007890;28;20054;-81
2020/12/22 02:16:36;;;;;;;1.10;1.00;;;13.90;99.90;;;;;;5007748;28;20074;-81
2020/12/22 02:19:03;;;;;;;4.18;1.50;;;13.90;99.90;;;;;;5007365;28;20462;-81
2020/12/22 02:21:30;;;;;;;1.65;1.13;;;13.90;99.90;;;;;;5009523;28;20054;-81
2020/12/22 02:23:56;;;;;;;1.85;1.20;;;13.90;99.90;;;;;;5010185;28;20074;-81
2020/12/22 02:26:24;;;;;;;2.17;1.20;;;13.90;99.90;;;;;;5010326;28;20065;-81
2020/12/22 02:28:51;;;;;;;1.48;1.00;;;13.90;99.90;;;;;;5009057;28;20050;-81
2020/12/22 02:31:18;;;;;;;1.55;1.20;;;14.00;99.90;;;;;;5008360;28;20050;-81
2020/12/22 02:33:45;;;;;;;1.75;1.33;;;14.00;99.90;;;;;;5007783;28;20077;-81
2020/12/22 02:36:13;;;;;;;3.92;0.95;;;13.90;99.90;;;;;;5008917;28;20055;-80
2020/12/22 02:38:41;;;;;;;1.15;0.80;;;14.00;99.90;;;;;;5010394;28;20050;-80
2020/12/22 02:41:08;;;;;;;1.13;1.00;;;14.00;99.90;;;;;;5010359;28;20050;-79
2020/12/22 02:43:34;;;;;;;1.48;0.85;;;14.00;99.90;;;;;;5010647;28;20058;-81
2020/12/22 02:46:01;;;;;;;1.35;0.70;;;14.00;99.90;;;;;;5008609;28;20050;-80
2020/12/22 02:48:27;;;;;;;1.25;1.00;;;14.00;99.90;;;;;;4998087;28;20046;-79
2020/12/22 02:50:54;;;;;;;1.17;0.82;;;13.90;99.90;;;;;;5009429;28;20046;-81
2020/12/22 02:53:21;;;;;;;3.53;1.50;;;13.90;99.90;;;;;;4995434;28;20483;-79
2020/12/22 02:55:48;;;;;;;1.70;1.20;;;13.90;99.90;;;;;;4993358;28;20089;-79
2020/12/22 02:58:15;;;;;;;2.35;1.55;;;13.80;99.90;;;;;;4993417;28;20132;-79
2020/12/22 03:00:41;;;;;;;1.10;1.10;;;13.80;99.90;;;;;;4997824;28;20110;-80
2020/12/22 03:03:08;;;;;;;1.45;1.30;;;13.70;99.90;;;;;;5003363;28;20515;-80
2020/12/22 03:05:34;;;;;;;1.05;0.95;;;13.70;99.90;;;;;;4995551;28;20487;-84
2020/12/22 03:08:01;;;;;;;2.17;1.27;;;13.70;99.90;;;;;;5004415;28;20054;-80
2020/12/22 03:10:30;;;;;;;2.92;1.10;;;13.70;99.90;;;;;;5005842;28;20419;-79
2020/12/22 03:12:57;;;;;;;1.30;1.15;;;13.70;99.90;;;;;;4997209;28;20085;-79
2020/12/22 03:15:23;;;;;;;2.20;1.00;;;13.70;99.90;;;;;;4998175;28;20129;-79
2020/12/22 03:17:50;;;;;;;1.30;1.15;;;13.70;99.90;;;;;;4998215;28;20136;-79
2020/12/22 03:20:16;;;;;;;0.95;0.88;;;13.70;99.90;;;;;;4997059;28;20137;-80
2020/12/22 03:22:43;;;;;;;1.92;1.30;;;13.80;99.90;;;;;;4997845;28;20104;-79
2020/12/22 03:25:10;;;;;;;1.73;1.17;;;13.80;99.90;;;;;;4998665;28;20082;-81
2020/12/22 03:27:37;;;;;;;1.48;1.27;;;13.80;99.90;;;;;;4997904;28;20138;-80
2020/12/22 03:30:06;;;;;;;1.45;1.15;;;13.80;99.90;;;;;;5010165;28;20053;-81
2020/12/22 03:32:32;;;;;;;2.10;0.80;;;13.80;99.90;;;;;;5008786;28;20061;-78
2020/12/22 03:34:59;;;;;;;3.88;1.35;;;13.70;99.90;;;;;;5016669;28;20041;-80
2020/12/22 03:37:25;;;;;;;3.97;1.23;;;13.70;99.90;;;;;;5011339;28;20047;-80
2020/12/22 03:39:54;;;;;;;2.45;0.98;;;13.80;99.90;;;;;;5006643;28;20085;-80
2020/12/22 03:42:21;;;;;;;2.22;1.15;;;13.80;99.90;;;;;;5002209;28;20050;-79
2020/12/22 03:44:48;;;;;;;6.32;1.27;;;13.80;99.90;;;;;;5002082;28;20074;-79
2020/12/22 03:47:16;;;;;;;1.67;1.17;;;13.80;99.90;;;;;;5002595;28;20046;-79
2020/12/22 03:49:43;;;;;;;1.25;0.75;;;13.90;99.90;;;;;;5002552;28;20085;-80
2020/12/22 03:52:11;;;;;;;2.00;1.30;;;13.90;99.90;;;;;;4997764;28;20054;-79
2020/12/22 03:54:38;;;;;;;0.70;0.70;;;13.90;99.90;;;;;;4995835;28;20050;-79
2020/12/22 03:57:05;;;;;;;1.27;0.90;;;14.00;99.90;;;;;;4995683;28;20137;-78
2020/12/22 03:59:32;;;;;;;1.67;1.10;;;14.00;99.90;;;;;;5001373;28;20183;-78
2020/12/22 04:01:59;;;;;;;1.90;1.00;;;14.00;99.90;;;;;;4995530;28;20054;-80
2020/12/22 04:04:26;;;;;;;2.78;1.10;;;14.00;99.90;;;;;;4995566;28;20129;-79
2020/12/22 04:06:52;;;;;;;2.03;0.60;;;14.00;99.90;;;;;;4995265;28;20137;-79
2020/12/22 04:09:20;;;;;;;1.15;1.00;;;14.00;99.90;;;;;;4996318;28;20193;-79
2020/12/22 04:11:46;;;;;;;2.70;1.17;;;14.10;99.90;;;;;;4995331;28;20133;-79
2020/12/22 04:14:13;;;;;;;0.90;0.77;;;14.10;99.90;;;;;;4995632;28;20137;-79
2020/12/22 04:16:40;;;;;;;2.35;1.13;;;14.10;99.90;;;;;;4996275;28;20133;-79
2020/12/22 04:19:06;;;;;;;2.20;1.08;;;14.10;99.90;;;;;;4996178;28;20514;-79
2020/12/22 04:21:34;;;;;;;2.63;0.98;;;14.10;99.90;;;;;;4994216;28;20574;-78
2020/12/22 04:24:01;;;;;;;1.77;1.00;;;14.10;99.90;;;;;;4995038;28;20137;-79
2020/12/22 04:26:28;;;;;;;1.75;0.95;;;14.00;99.90;;;;;;4998399;28;20081;-80
2020/12/22 04:28:54;;;;;;;1.42;1.33;;;14.00;99.90;;;;;;5004089;28;20053;-81
2020/12/22 04:31:21;;;;;;;3.53;1.00;;;14.00;99.90;;;;;;5002581;28;20534;-79
2020/12/22 04:33:48;;;;;;;2.50;1.45;;;14.00;99.90;;;;;;5002569;28;20054;-79
2020/12/22 04:36:15;;;;;;;2.38;1.30;;;13.90;99.90;;;;;;5002131;28;20069;-80
2020/12/22 04:38:42;;;;;;;2.47;0.93;;;13.80;99.90;;;;;;5000676;28;20046;-80
2020/12/22 04:41:12;;;;;;;2.45;1.40;;;13.80;99.90;;;;;;5003432;28;20050;-81
2020/12/22 04:43:39;;;;;;;2.45;1.15;;;13.80;99.90;;;;;;5001146;28;20050;-79
2020/12/22 04:46:07;;;;;;;0.88;0.70;;;13.80;99.90;;;;;;4996655;28;20129;-79
2020/12/22 04:48:36;;;;;;;0.80;0.80;;;13.80;99.90;;;;;;4994386;28;20270;-79
2020/12/22 04:51:06;;;;;;;2.97;1.08;;;13.90;99.90;;;;;;4996709;28;20092;-78
2020/12/22 04:53:33;;;;;;;1.50;0.70;;;13.90;99.90;;;;;;5004350;28;20072;-80
2020/12/22 04:56:02;;;;;;;0.80;0.80;;;13.90;99.90;;;;;;5004893;28;20495;-79
2020/12/22 04:58:29;;;;;;;0.68;0.68;;;13.90;99.90;;;;;;4999565;28;20054;-79
2020/12/22 05:00:57;;;;;;;0.93;0.70;;;13.90;99.90;;;;;;5009273;28;20062;-79
2020/12/22 05:03:24;;;;;;;3.10;0.77;;;13.90;99.90;;;;;;5009589;28;20061;-78
2020/12/22 05:05:51;;;;;;;1.13;0.90;;;13.90;99.90;;;;;;4997642;28;20114;-79
2020/12/22 05:08:18;;;;;;;0.90;0.70;;;14.00;99.90;;;;;;5006357;28;20573;-81
2020/12/22 05:10:46;;;;;;;1.48;0.93;;;14.00;99.90;;;;;;5012422;28;20054;-84
2020/12/22 05:13:15;;;;;;;2.33;0.80;;;14.00;99.90;;;;;;5007643;28;20055;-80
2020/12/22 05:15:42;;;;;;;2.10;1.20;;;14.00;99.90;;;;;;5006046;28;20046;-80
2020/12/22 05:18:09;;;;;;;2.78;0.60;;;13.90;99.90;;;;;;4995139;28;20072;-79
2020/12/22 05:20:39;;;;;;;2.67;1.15;;;13.90;99.90;;;;;;5003348;28;20074;-79
2020/12/22 05:23:08;;;;;;;2.92;1.08;;;13.90;99.90;;;;;;4999461;28;20100;-79
2020/12/22 05:25:36;;;;;;;3.60;2.45;;;14.00;99.90;;;;;;4987924;28;20058;-79
2020/12/22 05:28:02;;;;;;;3.42;2.13;;;14.00;99.90;;;;;;4976961;28;20094;-80
2020/12/22 05:30:31;;;;;;;2.05;0.90;;;14.10;99.90;;;;;;4983902;28;20050;-80
2020/12/22 05:32:57;;;;;;;2.42;1.73;;;14.00;99.90;;;;;;4975271;28;20080;-80
2020/12/22 05:35:24;;;;;;;3.47;1.38;;;14.10;99.90;;;;;;4976722;28;20492;-79
2020/12/22 05:37:52;;;;;;;2.83;1.40;;;14.10;99.90;;;;;;4976586;28;20129;-79
2020/12/22 05:40:19;;;;;;;1.33;0.80;;;14.10;99.90;;;;;;4978106;28;20058;-76
2020/12/22 05:42:46;;;;;;;1.20;0.88;;;14.20;99.90;;;;;;4971722;28;20102;-79
2020/12/22 05:45:13;;;;;;;2.40;1.67;;;14.10;99.90;;;;;;4973690;28;20126;-78
2020/12/22 05:47:41;;;;;;;2.55;1.17;;;14.20;99.90;;;;;;4976233;28;20098;-81
2020/12/22 05:50:08;;;;;;;1.65;1.08;;;14.10;99.90;;;;;;4981402;28;20055;-78
2020/12/22 05:52:34;;;;;;;2.13;1.70;;;14.10;99.90;;;;;;4973727;28;20130;-79
2020/12/22 05:55:01;;;;;;;1.05;0.90;;;14.10;99.90;;;;;;4974185;28;20492;-77
2020/12/22 05:57:29;;;;;;;3.42;1.40;;;14.10;99.90;;;;;;4974260;28;20460;-80
2020/12/22 05:59:57;;;;;;;1.88;1.52;;;14.10;99.90;;;;;;4977759;28;20526;-79
2020/12/22 06:02:28;;;;;;;1.42;0.93;;;14.10;99.90;;;;;;4976480;28;20086;-79
2020/12/22 06:04:57;;;;;;;0.98;0.68;;;14.20;99.90;;;;;;4976956;28;20394;-79
2020/12/22 06:07:23;;;;;;;1.92;1.08;;;14.20;99.90;;;;;;4976486;28;20074;-78
2020/12/22 06:09:50;;;;;;;3.13;1.15;;;14.20;99.90;;;;;;4976446;28;20078;-79
2020/12/22 06:12:17;;;;;;;2.67;0.85;;;14.20;99.90;;;;;;4978426;28;20078;-76
2020/12/22 06:14:46;;;;;;;5.65;1.13;;;14.30;99.90;;;;;;4972191;28;20122;-79
2020/12/22 06:17:13;;;;;;;2.67;1.17;;;14.20;99.90;;;;;;4974055;28;20137;-78
2020/12/22 06:19:43;;;;;;;1.45;1.35;;;14.20;99.90;;;;;;4973123;28;20575;-79
2020/12/22 06:22:12;;;;;;;1.52;0.80;;;14.20;99.90;;;;;;4974012;28;20134;-80
2020/12/22 06:24:39;;;;;;;1.40;0.68;;;14.20;99.90;;;;;;4973595;28;20101;-78
2020/12/22 06:27:06;;;;;;;1.42;0.85;;;14.20;99.90;;;;;;4973362;28;20042;-78
2020/12/22 06:29:34;;;;;;;2.35;0.63;;;14.20;99.90;;;;;;4975490;28;20101;-78
2020/12/22 06:32:23;;;;;;;1.90;0.82;;;14.20;99.90;;;;;;4973443;28;20129;-78
2020/12/22 06:34:49;;;;;;;0.93;0.93;;;14.30;99.90;;;;;;4972428;28;20415;-79
2020/12/22 06:37:21;;;;;;;1.92;0.90;;;14.30;99.90;;;;;;4972619;28;20138;-78
2020/12/22 06:39:49;;;;;;;2.17;0.77;;;14.30;99.90;;;;;;4973300;28;20094;-78
2020/12/22 06:42:43;;;;;;;0.60;0.60;;;14.30;99.90;;;;;;4980468;28;20050;-78
2020/12/22 06:45:23;;;;;;;3.35;0.80;;;14.40;99.90;;;;;;4996567;28;20073;-78
2020/12/22 06:47:50;;;;;;;3.17;1.05;;;14.40;99.90;;;;;;4995921;28;20136;-78
2020/12/22 06:50:37;;;;;;;2.67;1.13;;;14.40;99.90;;;;;;4991265;28;20493;-77
2020/12/22 06:53:05;;;;;;;6.97;5.07;;;14.40;99.90;;;;;;4977452;28;20145;-78
2020/12/22 06:55:50;;;;;;;10.20;5.47;;;14.40;99.90;;;;;;4978835;28;20544;-78
2020/12/22 06:58:35;;;;;;;2.72;1.63;;;14.40;99.90;;;;;;4976247;28;20078;-77
2020/12/22 07:01:28;;;;;;;3.67;2.50;;;14.40;99.90;;;;;;4977598;28;20063;-75
2020/12/22 07:04:10;;;;;;;2.25;1.73;;;14.40;99.90;;;;;;4974350;28;20126;-76
2020/12/22 07:06:43;;;;;;;3.80;1.65;;;14.40;99.90;;;;;;4996715;28;20133;-76
2020/12/22 07:09:14;;;;;;;2.28;1.40;;;14.40;99.90;;;;;;4983961;28;20050;-77
2020/12/22 07:11:40;;;;;;;2.40;2.17;;;14.40;99.90;;;;;;4977465;28;20150;-77
2020/12/22 07:14:07;;;;;;;3.83;2.50;;;14.40;99.90;;;;;;4970885;28;20133;-79
2020/12/22 07:16:46;;;;;;;3.90;2.35;;;14.40;99.90;;;;;;4976225;28;20126;-76
2020/12/22 07:19:21;;;;;;;4.70;2.50;;;14.30;99.90;;;;;;4976877;28;20110;-77
2020/12/22 07:21:48;;;;;;;3.88;2.67;;;14.20;99.90;;;;;;4999549;23;20751;-77
2020/12/22 07:24:16;;;;;;;2.72;2.20;;;14.20;99.90;;;;;;4983320;28;20427;-77
2020/12/22 07:26:43;;;;;;;2.35;1.70;;;14.20;99.90;;;;;;4976873;28;20145;-78
2020/12/22 07:29:09;;;;;;;1.60;1.50;;;14.20;99.90;;;;;;4979218;28;20070;-78
2020/12/22 07:31:36;;;;;;;3.42;2.08;;;14.20;99.90;;;;;;4963023;28;20039;-77
2020/12/22 07:34:04;;;;;;;6.00;3.30;;;14.20;99.90;;;;;;4958605;28;20538;-77
2020/12/22 07:36:31;;;;;;;3.83;2.45;;;14.20;99.90;;;;;;4969059;28;20511;-77
2020/12/22 07:39:10;;;;;;;4.63;3.28;;;14.20;99.90;;;;;;4972030;28;20526;-78
2020/12/22 07:41:38;;;;;;;3.83;2.78;;;14.30;99.90;;;;;;4977038;28;20086;-78
2020/12/22 07:44:08;;;;;;;4.28;2.92;;;14.20;99.90;;;;;;4974092;28;20139;-78
2020/12/22 07:46:34;;;;;;;5.78;3.35;;;14.20;99.90;;;;;;4966937;28;20043;-78
2020/12/22 07:49:06;;;;;;;4.28;3.42;;;14.30;99.90;;;;;;4968062;28;20137;-77
2020/12/22 07:51:32;;;;;;;5.53;3.30;;;14.30;99.90;;;;;;4965004;28;20059;-78
2020/12/22 07:54:03;;;;;;;4.13;2.85;;;14.40;99.90;;;;;;4970292;28;20137;-78
2020/12/22 07:56:32;;;;;;;4.13;2.35;;;14.40;99.90;;;;;;4976527;28;20129;-78
2020/12/22 07:59:02;;;;;;;3.85;2.80;;;14.30;99.90;;;;;;4978098;28;20050;-78
2020/12/22 08:01:31;;;;;;;2.83;2.05;;;14.30;99.90;;;;;;4980267;28;20054;-78
2020/12/22 08:03:58;;;;;;;3.25;2.60;;;14.30;99.90;;;;;;4978500;28;20097;-78
2020/12/22 08:06:25;;;;;;;4.15;3.00;;;14.30;99.90;;;;;;4967713;28;20051;-78
2020/12/22 08:08:58;;;;;;;5.05;3.20;;;14.20;99.90;;;;;;4958460;29;20134;-77
2020/12/22 08:11:26;;;;;;;3.15;2.85;;;14.20;99.90;;;;;;4956230;29;20106;-76
2020/12/22 08:13:53;;;;;;;7.90;3.63;;;14.20;99.90;;;;;;4962328;28;20074;-77
2020/12/22 08:16:22;;;;;;;4.45;2.95;;;14.30;99.90;;;;;;4957191;28;20150;-77
2020/12/22 08:18:49;;;;;;;3.42;2.60;;;14.30;99.90;;;;;;4955664;28;20134;-77
2020/12/22 08:21:19;;;;;;;6.45;3.17;;;14.30;99.90;;;;;;4971018;28;20146;-76
2020/12/22 08:23:46;;;;;;;5.60;3.20;;;14.30;99.90;;;;;;4966033;28;20082;-77
2020/12/22 08:26:17;;;;;;;6.75;4.55;;;14.30;99.90;;;;;;4972639;28;20126;-77
2020/12/22 08:28:51;;;;;;;3.28;2.90;;;14.40;99.90;;;;;;4957779;28;20055;-77
2020/12/22 08:31:22;;;;;;;5.03;3.53;;;14.40;99.90;;;;;;4972192;28;20058;-77
2020/12/22 08:33:53;;;;;;;3.38;1.98;;;14.40;99.90;;;;;;4962173;28;20052;-78
2020/12/22 08:36:20;;;;;;;3.95;2.35;;;14.40;99.90;;;;;;4972760;28;20133;-79
2020/12/22 08:38:47;;;;;;;3.45;2.30;;;14.40;99.90;;;;;;4971852;28;20055;-78
2020/12/22 08:41:17;;;;;;;3.22;2.10;;;14.50;99.90;;;;;;4979142;28;20631;-77
2020/12/22 08:43:51;;;;;;;2.95;2.17;;;14.50;99.90;;;;;;4984928;28;20055;-79
2020/12/22 08:46:19;;;;;;;2.83;2.22;;;14.60;99.90;;;;;;4976645;28;20070;-78
2020/12/22 08:48:48;;;;;;;5.00;2.92;;;14.60;99.90;;;;;;4974663;28;20047;-78
2020/12/22 08:51:27;;;;;;;4.78;2.50;;;14.60;99.90;;;;;;4981993;28;20047;-78
2020/12/22 08:53:53;;;;;;;5.45;2.83;;;14.60;99.90;;;;;;4980388;28;20098;-78
2020/12/22 08:56:24;;;;;;;3.60;3.00;;;14.60;99.90;;;;;;4987125;28;20044;-79
2020/12/22 08:58:55;;;;;;;4.25;2.67;;;14.60;99.90;;;;;;4975012;28;20062;-79
2020/12/22 09:01:23;;;;;;;3.72;2.80;;;14.60;99.90;;;;;;4986702;28;20074;-79
2020/12/22 09:03:56;;;;;;;3.00;2.50;;;14.60;99.90;;;;;;4992002;28;20085;-79
2020/12/22 09:06:36;;;;;;;4.40;2.72;;;14.70;99.90;;;;;;4990430;28;20060;-78
2020/12/22 09:09:04;;;;;;;2.78;2.55;;;14.70;99.90;;;;;;4988198;28;20057;-78
2020/12/22 09:11:31;;;;;;;5.32;3.10;;;14.70;99.90;;;;;;4980909;28;20079;-80
2020/12/22 09:14:05;;;;;;;6.60;3.10;;;14.70;99.90;;;;;;4984836;28;20086;-81
2020/12/22 09:16:55;;;;;;;2.65;2.42;;;14.60;99.90;;;;;;4983804;28;20516;-80
2020/12/22 09:19:28;;;;;;;3.63;2.60;;;14.50;99.90;;;;;;4982102;28;20188;-80
2020/12/22 09:22:00;;;;;;;3.58;2.58;;;14.50;99.90;;;;;;4985753;28;20062;-78
2020/12/22 09:24:26;;;;;;;5.25;3.20;;;14.60;99.90;;;;;;4984311;28;20210;-78
2020/12/22 09:27:06;;;;;;;3.70;3.10;;;14.60;99.90;;;;;;4981277;28;20051;-79
2020/12/22 09:29:35;;;;;;;3.50;2.90;;;14.60;99.90;;;;;;4981705;28;20065;-79
2020/12/22 09:32:01;;;;;;;2.67;2.30;;;14.70;99.90;;;;;;4980549;28;20130;-79
2020/12/22 09:34:31;;;;;;;5.05;3.40;;;14.70;99.90;;;;;;4979060;28;20134;-79
2020/12/22 09:36:59;;;;;;;4.15;3.20;;;14.80;99.90;;;;;;4975784;28;20082;-79
2020/12/22 09:39:27;;;;;;;5.53;4.28;;;14.80;99.90;;;;;;4976103;28;20503;-78
2020/12/22 09:41:54;;;;;;;4.10;3.45;;;14.80;99.90;;;;;;4976276;28;20562;-78
2020/12/22 09:44:21;;;;;;;3.28;2.03;;;14.90;99.90;;;;;;4975705;28;20086;-77
2020/12/22 09:46:48;;;;;;;3.28;1.73;;;14.90;99.90;;;;;;4981182;28;20085;-79
2020/12/22 09:49:15;;;;;;;3.78;2.03;;;14.90;99.90;;;;;;4976075;28;20089;-80
2020/12/22 09:51:42;;;;;;;1.98;1.83;;;14.90;99.90;;;;;;4980555;28;20086;-79
2020/12/22 09:54:08;;;;;;;3.20;2.42;;;14.90;99.90;;;;;;4977399;28;20101;-79
2020/12/22 09:56:35;;;;;;;2.28;2.03;;;14.90;99.90;;;;;;4979118;28;20084;-80
2020/12/22 09:59:02;;;;;;;4.47;2.45;;;14.90;99.90;;;;;;4977855;28;20094;-80
2020/12/22 10:01:28;;;;;;;3.45;2.40;;;15.00;99.90;;;;;;4977197;28;20134;-80
2020/12/22 10:03:55;;;;;;;2.83;2.30;;;15.00;99.90;;;;;;4977111;28;20107;-80
2020/12/22 10:06:22;;;;;;;2.78;2.50;;;15.10;99.90;;;;;;4977359;28;20433;-82
2020/12/22 10:08:51;;;;;;;4.47;2.75;;;15.10;99.90;;;;;;4977911;28;20097;-81
2020/12/22 10:11:19;;;;;;;3.33;2.70;;;15.20;99.90;;;;;;4973745;28;20130;-80
2020/12/22 10:13:46;;;;;;;2.10;1.98;;;15.20;99.90;;;;;;4968436;28;20246;-79
2020/12/22 10:16:14;;;;;;;4.28;2.15;;;15.20;99.90;;;;;;4970946;28;20051;-79
2020/12/22 10:18:40;;;;;;;3.53;2.42;;;15.20;99.90;;;;;;4971052;28;20067;-80
2020/12/22 10:21:09;;;;;;;6.38;2.25;;;15.20;99.90;;;;;;4973062;28;20082;-77
2020/12/22 10:23:36;;;;;;;3.50;2.28;;;15.10;99.90;;;;;;4975134;28;20129;-80
2020/12/22 10:26:04;;;;;;;3.00;1.92;;;15.10;99.90;;;;;;4981672;28;20074;-79
2020/12/22 10:28:32;;;;;;;2.22;1.40;;;15.10;99.90;;;;;;4981457;28;20066;-78
2020/12/22 10:30:59;;;;;;;3.95;2.00;;;15.00;99.90;;;;;;4980524;28;20054;-79
2020/12/22 10:33:26;;;;;;;3.20;2.03;;;15.10;99.90;;;;;;4972936;28;20085;-79
2020/12/22 10:35:52;;;;;;;2.72;1.95;;;15.00;99.90;;;;;;4968683;28;20463;-79
2020/12/22 10:38:19;;;;;;;1.40;1.30;;;15.00;99.90;;;;;;4960645;28;20412;-78
2020/12/22 10:40:45;;;;;;;4.15;1.55;;;15.10;99.90;;;;;;4971925;28;20113;-77
2020/12/22 10:43:13;;;;;;;2.88;1.85;;;15.00;99.90;;;;;;4967777;28;20138;-77
2020/12/22 10:45:40;;;;;;;4.07;2.00;;;15.00;99.90;;;;;;4970607;28;20051;-78
2020/12/22 10:48:07;;;;;;;2.15;1.55;;;15.00;99.90;;;;;;4968046;28;20051;-79
2020/12/22 10:50:35;;;;;;;3.10;1.58;;;15.00;99.90;;;;;;4977401;28;20082;-78
2020/12/22 10:53:01;;;;;;;3.70;1.98;;;14.90;99.90;;;;;;4961714;28;20495;-78
2020/12/22 10:55:27;;;;;;;3.28;2.13;;;14.90;99.90;;;;;;4963806;28;20134;-78
2020/12/22 10:57:54;;;;;;;3.20;2.25;;;14.90;99.90;;;;;;4970933;28;20044;-80
2020/12/22 11:00:21;;;;;;;5.40;1.95;;;14.80;99.90;;;;;;4961878;28;20051;-83
2020/12/22 11:02:50;;;;;;;3.55;1.92;;;14.70;99.90;;;;;;4974470;28;20128;-80
2020/12/22 11:05:16;;;;;;;4.38;2.05;;;14.70;99.90;;;;;;4957967;28;20051;-76
2020/12/22 11:07:46;;;;;;;5.13;2.25;;;14.70;99.90;;;;;;4958982;28;20082;-76
2020/12/22 11:10:13;;;;;;;3.22;2.22;;;14.60;99.90;;;;;;4964511;28;20130;-77
2020/12/22 11:12:40;;;;;;;3.67;2.55;;;14.60;99.90;;;;;;4960027;28;20469;-77
2020/12/22 11:15:07;;;;;;;6.22;2.20;;;14.60;99.90;;;;;;4972747;28;20129;-79
2020/12/22 11:17:34;;;;;;;2.65;2.00;;;14.60;99.90;;;;;;4959094;28;20081;-77
2020/12/22 11:20:00;;;;;;;3.80;2.15;;;14.60;99.90;;;;;;4968499;28;20130;-78
2020/12/22 11:22:27;;;;;;;3.08;2.40;;;14.60;99.90;;;;;;4965641;28;20082;-79
2020/12/22 11:24:53;;;;;;;4.28;2.85;;;14.60;99.90;;;;;;4966962;28;20126;-75
2020/12/22 11:27:19;;;;;;;4.05;2.72;;;14.50;99.90;;;;;;4983454;28;20054;-76
2020/12/22 11:29:46;;;;;;;4.40;3.10;;;14.40;99.90;;;;;;4975898;28;20073;-77
2020/12/22 11:32:12;;;;;;;3.53;2.63;;;14.40;99.90;;;;;;4979271;29;20051;-77
2020/12/22 11:34:39;;;;;;;5.78;3.17;;;14.40;99.90;;;;;;4962173;28;20086;-78
2020/12/22 11:37:06;;;;;;;3.13;2.30;;;14.40;99.90;;;;;;4976107;28;20419;-78
2020/12/22 11:39:32;;;;;;;5.03;2.97;;;14.40;99.90;;;;;;4969462;28;20134;-77
2020/12/22 11:42:02;;;;;;;6.47;3.15;;;14.40;99.90;;;;;;4977218;28;20055;-78
2020/12/22 11:44:29;;;;;;;4.97;3.30;;;14.50;99.90;;;;;;4973379;28;20474;-76
2020/12/22 11:46:55;;;;;;;3.97;2.80;;;14.50;99.90;;;;;;4984091;28;20074;-78
2020/12/22 11:49:22;;;;;;;4.05;3.00;;;14.50;99.90;;;;;;4968305;28;20059;-79
2020/12/22 11:51:55;;;;;;;3.25;2.47;;;14.50;99.90;;;;;;4961016;28;20055;-79
2020/12/22 11:54:21;;;;;;;4.00;2.45;;;14.50;99.90;;;;;;4963232;28;20142;-79
2020/12/22 11:56:48;;;;;;;3.58;2.60;;;14.50;99.90;;;;;;4963327;28;20122;-78
2020/12/22 11:59:14;;;;;;;6.30;3.15;;;14.50;99.90;;;;;;4975856;28;20134;-78
2020/12/22 12:01:40;;;;;;;4.88;2.92;;;14.50;99.90;;;;;;4964002;28;20133;-78
2020/12/22 12:04:07;;;;;;;4.82;2.47;;;14.50;99.90;;;;;;4970039;28;20102;-79
2020/12/22 12:06:34;;;;;;;3.90;2.53;;;14.40;99.90;;;;;;4974854;28;20047;-79
2020/12/22 12:09:01;;;;;;;3.30;2.58;;;14.40;99.90;;;;;;4965482;28;20070;-80
2020/12/22 12:11:27;;;;;;;3.30;2.70;;;14.40;99.90;;;;;;4976220;28;20135;-79
2020/12/22 12:13:54;;;;;;;4.85;2.65;;;14.50;99.90;;;;;;4970328;28;20051;-78
2020/12/22 12:16:20;;;;;;;4.47;2.67;;;14.30;99.90;;;;;;4968474;28;20078;-78
2020/12/22 12:18:47;;;;;;;3.92;2.95;;;14.30;99.90;;;;;;4973276;28;20149;-79
2020/12/22 12:21:15;;;;;;;5.25;2.80;;;14.20;99.90;;;;;;4977295;28;20042;-78
2020/12/22 12:23:42;;;;;;;5.28;3.00;;;14.10;99.90;;;;;;4966439;28;20043;-79
2020/12/22 12:26:09;;;;;;;6.32;3.30;;;14.00;99.90;;;;;;4970874;28;20081;-79
2020/12/22 12:28:37;;;;;;;3.13;2.78;;;13.90;99.90;;;;;;4969706;28;20532;-79
2020/12/22 12:31:04;;;;;;;5.43;2.72;;;13.90;99.90;;;;;;4970616;28;20129;-78
2020/12/22 12:33:40;;;;;;;5.68;3.13;;;14.00;99.90;;;;;;4989529;28;20053;-78
2020/12/22 12:36:07;;;;;;;3.03;2.55;;;14.00;99.90;;;;;;4965544;28;20147;-77
2020/12/22 12:38:33;;;;;;;5.35;2.70;;;14.10;99.90;;;;;;4961538;28;20133;-78
2020/12/22 12:41:00;;;;;;;4.43;2.85;;;14.10;99.90;;;;;;4958889;28;20453;-79
2020/12/22 12:43:27;;;;;;;3.38;3.00;;;14.20;99.90;;;;;;4966944;28;20079;-78
2020/12/22 12:45:53;;;;;;;5.97;3.10;;;14.30;99.90;;;;;;4968369;28;20456;-78
2020/12/22 12:48:20;;;;;;;4.50;2.95;;;14.30;99.90;;;;;;4972374;28;20047;-77
2020/12/22 12:50:46;;;;;;;4.25;2.80;;;14.30;99.90;;;;;;4975303;28;20126;-78
2020/12/22 12:53:13;;;;;;;6.20;2.67;;;14.30;99.90;;;;;;4970851;28;20095;-78
2020/12/22 12:55:39;;;;;;;3.85;2.80;;;14.30;99.90;;;;;;4975415;28;20577;-78
2020/12/22 12:58:06;;;;;;;6.03;2.92;;;14.30;99.90;;;;;;4974753;28;20579;-76
2020/12/22 13:00:33;;;;;;;4.72;2.70;;;14.30;99.90;;;;;;4976137;28;20058;-79